Time;durP1;ratioP1;P1;durP2;ratioP2;P2;SDS_P1;SDS_P2;PMS_P1;PMS_P2;Temp;Humidity;BMP_temperature;BMP_pressure;BME280_temperature;BME280_humidity;BME280_pressure;Samples;Min_cycle;Max_cycle;Signal;HPM_P1;HPM_P2
2023/05/14 00:01:51;;;;;;;4.45;2.20;;;;;;;12.73;93.22;101097.28;5715470;23;20017;-74
2023/05/14 00:04:21;;;;;;;4.65;2.28;;;;;;;12.69;92.68;101091.31;5196943;28;20030;-76
2023/05/14 00:06:51;;;;;;;3.05;1.90;;;;;;;12.58;93.48;101082.06;5188266;28;20030;-74
2023/05/14 00:09:22;;;;;;;2.63;1.70;;;;;;;12.57;95.81;101083.00;5192538;28;20044;-72
2023/05/14 00:11:52;;;;;;;3.78;2.30;;;;;;;12.43;95.31;101091.34;5180646;28;20137;-72
2023/05/14 00:14:22;;;;;;;2.95;1.98;;;;;;;12.45;93.89;101080.81;5169973;28;20116;-72
2023/05/14 00:16:52;;;;;;;5.25;2.30;;;;;;;12.45;93.92;101091.31;5172018;28;20034;-71
2023/05/14 00:19:23;;;;;;;3.92;2.20;;;;;;;12.39;95.58;101095.00;5173561;28;20495;-71
2023/05/14 00:21:53;;;;;;;3.42;2.40;;;;;;;12.37;94.35;101091.56;5169692;28;20027;-71
2023/05/14 00:24:23;;;;;;;4.05;2.17;;;;;;;12.37;94.17;101090.72;5175215;28;20320;-72
2023/05/14 00:26:54;;;;;;;3.63;2.17;;;;;;;12.20;96.17;101087.81;5168481;28;20033;-71
2023/05/14 00:29:24;;;;;;;6.20;2.75;;;;;;;12.26;95.02;101085.00;5168725;28;20072;-71
2023/05/14 00:31:54;;;;;;;4.65;2.40;;;;;;;12.28;94.34;101085.78;5186251;28;20038;-71
2023/05/14 00:34:25;;;;;;;3.20;2.25;;;;;;;12.21;95.18;101082.53;5170852;28;20395;-70
2023/05/14 00:36:55;;;;;;;4.47;2.42;;;;;;;12.08;95.84;101090.81;5169378;28;20030;-70
2023/05/14 00:39:25;;;;;;;3.83;2.20;;;;;;;11.94;94.71;101083.44;5171620;28;20050;-71
2023/05/14 00:41:55;;;;;;;3.53;2.17;;;;;;;11.95;93.06;101082.53;5172132;28;20117;-72
2023/05/14 00:44:26;;;;;;;3.45;2.10;;;;;;;11.83;94.71;101085.56;5171554;28;20479;-71
2023/05/14 00:46:57;;;;;;;3.53;2.05;;;;;;;11.78;96.42;101092.69;5174203;28;20065;-72
2023/05/14 00:49:28;;;;;;;3.00;2.00;;;;;;;11.59;97.10;101083.72;5172449;28;20391;-71
2023/05/14 00:51:59;;;;;;;4.75;2.40;;;;;;;11.33;100.00;101085.41;5173647;28;20034;-73
2023/05/14 00:54:29;;;;;;;5.25;2.53;;;;;;;11.26;100.00;101086.50;5170629;28;20083;-72
2023/05/14 00:57:00;;;;;;;4.25;2.53;;;;;;;11.23;100.00;101082.19;5167911;28;20030;-71
2023/05/14 00:59:31;;;;;;;3.90;2.42;;;;;;;11.30;100.00;101078.47;5158598;28;20034;-71
2023/05/14 01:02:01;;;;;;;3.33;2.08;;;;;;;11.30;100.00;101080.25;5156314;28;20037;-71
2023/05/14 01:04:34;;;;;;;4.47;2.50;;;;;;;11.52;98.80;101073.44;5168617;28;20057;-71
2023/05/14 01:07:22;;;;;;;3.22;2.33;;;;;;;11.45;99.54;101078.00;5170321;28;20030;-72
2023/05/14 01:10:00;;;;;;;7.55;2.42;;;;;;;11.60;97.83;101079.34;5183766;28;20566;-71
2023/05/14 01:12:50;;;;;;;3.20;2.10;;;;;;;11.17;100.00;101086.75;5171940;28;20030;-71
2023/05/14 01:15:25;;;;;;;2.72;1.88;;;;;;;10.89;100.00;101085.00;5167797;28;20080;-71
2023/05/14 01:18:00;;;;;;;3.67;2.08;;;;;;;11.13;100.00;101088.59;5182752;28;20034;-71
2023/05/14 01:20:30;;;;;;;3.25;1.90;;;;;;;11.03;100.00;101087.19;5168409;28;20116;-71
2023/05/14 01:23:01;;;;;;;2.78;1.73;;;;;;;11.03;98.67;101083.69;5171500;28;20121;-71
2023/05/14 01:25:32;;;;;;;4.20;2.38;;;;;;;10.89;100.00;101087.63;5185926;28;20403;-71
2023/05/14 01:28:14;;;;;;;3.10;2.22;;;;;;;10.77;100.00;101091.44;5170450;28;20073;-73
2023/05/14 01:31:05;;;;;;;5.57;2.10;;;;;;;10.90;100.00;101089.31;5168155;28;20399;-72
2023/05/14 01:33:36;;;;;;;3.67;2.03;;;;;;;10.78;100.00;101082.69;5174420;28;20053;-71
2023/05/14 01:36:07;;;;;;;3.35;1.90;;;;;;;10.80;100.00;101087.84;5172930;28;20107;-73
2023/05/14 01:38:38;;;;;;;3.83;2.40;;;;;;;10.70;100.00;101081.19;5166272;28;20030;-71
2023/05/14 01:41:09;;;;;;;3.78;2.33;;;;;;;10.76;100.00;101083.63;5169410;28;20075;-74
2023/05/14 01:43:39;;;;;;;3.65;2.30;;;;;;;10.77;100.00;101085.34;5173054;28;20209;-74
2023/05/14 01:46:09;;;;;;;5.25;2.60;;;;;;;10.70;100.00;101081.19;5173271;28;20029;-74
2023/05/14 01:48:40;;;;;;;5.38;2.50;;;;;;;10.81;100.00;101074.75;5172466;28;20188;-73
2023/05/14 01:51:13;;;;;;;3.38;2.20;;;;;;;10.20;100.00;101084.31;5166901;28;20065;-73
2023/05/14 01:53:43;;;;;;;6.15;2.50;;;;;;;10.18;100.00;101089.56;5168168;28;20125;-74
2023/05/14 01:56:13;;;;;;;5.72;2.45;;;;;;;10.07;100.00;101085.50;5169728;28;20103;-74
2023/05/14 01:58:43;;;;;;;4.05;2.42;;;;;;;10.41;100.00;101083.72;5171999;28;20472;-74
2023/05/14 02:01:14;;;;;;;2.95;1.77;;;;;;;10.51;100.00;101080.81;5169768;28;20034;-74
2023/05/14 02:03:44;;;;;;;3.63;2.17;;;;;;;10.45;100.00;101080.13;5172159;28;20036;-74
2023/05/14 02:06:15;;;;;;;3.25;2.08;;;;;;;10.56;100.00;101075.47;5171146;28;20476;-72
2023/05/14 02:08:45;;;;;;;2.65;1.92;;;;;;;10.51;100.00;101080.81;5168240;28;20037;-75
2023/05/14 02:11:15;;;;;;;3.78;2.20;;;;;;;10.27;100.00;101076.28;5170515;28;20034;-74
2023/05/14 02:13:45;;;;;;;2.97;1.92;;;;;;;10.18;100.00;101080.88;5169542;28;20096;-74
2023/05/14 02:16:16;;;;;;;3.10;2.22;;;;;;;10.29;100.00;101081.44;5172567;28;20041;-73
2023/05/14 02:18:46;;;;;;;3.70;2.38;;;;;;;10.27;100.00;101076.28;5172604;28;20034;-76
2023/05/14 02:21:16;;;;;;;2.97;1.88;;;;;;;10.22;100.00;101070.31;5172876;28;20075;-74
2023/05/14 02:23:48;;;;;;;3.40;2.33;;;;;;;10.26;100.00;101066.72;5169474;28;20026;-74
2023/05/14 02:26:18;;;;;;;4.57;2.13;;;;;;;10.16;100.00;101067.84;5165954;28;20399;-74
2023/05/14 02:28:49;;;;;;;3.40;2.00;;;;;;;10.26;100.00;101063.25;5169998;28;20034;-72
2023/05/14 02:31:19;;;;;;;4.70;2.13;;;;;;;10.09;100.00;101060.22;5187763;28;20484;-74
2023/05/14 02:33:49;;;;;;;3.80;2.33;;;;;;;9.95;100.00;101059.66;5168428;28;20072;-73
2023/05/14 02:36:19;;;;;;;4.30;2.13;;;;;;;10.19;100.00;101069.53;5171048;28;20091;-74
2023/05/14 02:38:50;;;;;;;5.80;2.88;;;;;;;9.87;100.00;101066.84;5184483;28;20466;-74
2023/05/14 02:41:20;;;;;;;3.45;2.20;;;;;;;9.73;100.00;101064.59;5169155;28;20073;-74
2023/05/14 02:43:51;;;;;;;4.32;2.25;;;;;;;9.90;100.00;101061.53;5170653;28;20050;-73
2023/05/14 02:46:21;;;;;;;3.05;1.98;;;;;;;10.16;100.00;101059.16;5172598;28;20026;-72
2023/05/14 02:48:52;;;;;;;3.65;1.92;;;;;;;9.88;100.00;101063.34;5165187;28;20034;-73
2023/05/14 02:51:22;;;;;;;5.32;1.92;;;;;;;9.98;100.00;101062.22;5170996;28;20022;-72
2023/05/14 02:53:52;;;;;;;3.55;2.00;;;;;;;10.18;100.00;101060.81;5170190;28;20113;-74
2023/05/14 02:56:23;;;;;;;2.95;1.67;;;;;;;10.15;100.00;101062.69;5167876;28;20021;-73
2023/05/14 02:58:53;;;;;;;2.78;1.92;;;;;;;10.03;100.00;101069.06;5165735;28;20046;-72
2023/05/14 03:01:23;;;;;;;4.18;2.47;;;;;;;9.82;100.00;101063.50;5170303;28;20029;-73
2023/05/14 03:03:54;;;;;;;6.13;2.28;;;;;;;9.80;100.00;101070.50;5168656;28;20503;-74
2023/05/14 03:06:24;;;;;;;5.20;2.20;;;;;;;9.61;100.00;101069.22;5163001;28;20022;-73
2023/05/14 03:08:55;;;;;;;3.80;2.30;;;;;;;9.53;100.00;101065.94;5163391;28;20392;-73
2023/05/14 03:11:25;;;;;;;3.88;2.13;;;;;;;9.65;100.00;101060.44;5168085;28;20030;-73
2023/05/14 03:13:55;;;;;;;3.35;2.20;;;;;;;9.66;100.00;101068.22;5183066;28;20034;-73
2023/05/14 03:16:26;;;;;;;3.65;2.55;;;;;;;9.92;100.00;101059.75;5171981;28;20034;-74
2023/05/14 03:18:56;;;;;;;3.20;2.00;;;;;;;9.89;100.00;101058.09;5169544;28;20038;-73
2023/05/14 03:21:26;;;;;;;3.88;2.17;;;;;;;9.59;100.00;101055.34;5169714;28;20630;-75
2023/05/14 03:23:57;;;;;;;3.95;2.22;;;;;;;9.69;100.00;101054.25;5185336;28;20420;-73
2023/05/14 03:26:27;;;;;;;4.40;2.53;;;;;;;9.87;100.00;101053.78;5176311;28;20064;-74
2023/05/14 03:28:57;;;;;;;3.90;2.33;;;;;;;9.79;100.00;101050.53;5169897;28;20492;-74
2023/05/14 03:31:28;;;;;;;3.30;2.20;;;;;;;9.44;100.00;101061.81;5175069;28;20044;-73
2023/05/14 03:33:58;;;;;;;3.25;2.13;;;;;;;9.44;100.00;101051.38;5189957;28;20025;-74
2023/05/14 03:36:28;;;;;;;3.50;2.10;;;;;;;9.26;100.00;101063.94;5189688;28;20037;-72
2023/05/14 03:38:59;;;;;;;4.10;2.30;;;;;;;9.40;100.00;101064.50;5170809;28;20468;-74
2023/05/14 03:41:29;;;;;;;3.90;2.30;;;;;;;9.60;100.00;101057.06;5190178;28;20709;-72
2023/05/14 03:43:59;;;;;;;4.00;2.30;;;;;;;9.76;100.00;101053.19;5171988;28;20034;-74
2023/05/14 03:46:29;;;;;;;6.05;2.50;;;;;;;9.75;100.00;101046.25;5171043;28;20026;-72
2023/05/14 03:49:00;;;;;;;3.28;2.03;;;;;;;9.86;100.00;101050.31;5174030;28;20030;-73
2023/05/14 03:51:30;;;;;;;3.70;2.35;;;;;;;9.83;100.00;101050.38;5175000;28;20042;-73
2023/05/14 03:54:02;;;;;;;4.13;2.28;;;;;;;9.73;100.00;101048.94;5171996;28;20026;-73
2023/05/14 03:56:32;;;;;;;5.10;2.40;;;;;;;9.47;100.00;101045.22;5173294;28;20024;-73
2023/05/14 03:59:02;;;;;;;3.22;2.20;;;;;;;9.62;100.00;101050.09;5170721;28;20042;-76
2023/05/14 04:01:33;;;;;;;5.28;2.00;;;;;;;9.61;100.00;101046.59;5173780;28;20055;-73
2023/05/14 04:04:03;;;;;;;3.55;2.28;;;;;;;9.95;100.00;101050.09;5172260;28;20032;-74
2023/05/14 04:06:34;;;;;;;3.85;2.35;;;;;;;9.96;100.00;101048.34;5172458;28;20447;-73
2023/05/14 04:09:04;;;;;;;3.63;2.22;;;;;;;9.93;100.00;101048.41;5171595;28;20026;-73
2023/05/14 04:11:34;;;;;;;5.28;2.80;;;;;;;10.14;100.00;101043.53;5170548;28;20452;-73
2023/05/14 04:14:05;;;;;;;5.80;2.75;;;;;;;10.11;100.00;101040.13;5173967;28;20017;-73
2023/05/14 04:16:35;;;;;;;4.30;2.42;;;;;;;10.15;100.00;101045.25;5171294;28;20515;-74
2023/05/14 04:19:05;;;;;;;4.95;3.05;;;;;;;10.02;100.00;101041.22;5171011;28;20026;-75
2023/05/14 04:21:36;;;;;;;4.07;2.35;;;;;;;10.32;100.00;101039.59;5169323;28;20065;-74
2023/05/14 04:24:06;;;;;;;4.30;2.70;;;;;;;9.92;100.00;101038.88;5187373;28;20479;-74
2023/05/14 04:26:37;;;;;;;5.53;2.72;;;;;;;10.16;100.00;101035.66;5171275;28;20092;-73
2023/05/14 04:29:07;;;;;;;6.10;2.78;;;;;;;10.59;100.00;101028.34;5169818;28;20095;-75
2023/05/14 04:31:38;;;;;;;3.58;2.38;;;;;;;11.59;99.49;101035.75;5167928;28;20117;-73
2023/05/14 04:34:08;;;;;;;3.35;2.20;;;;;;;11.80;93.51;101025.41;5170509;28;20390;-73
2023/05/14 04:36:39;;;;;;;2.20;1.90;;;;;;;12.70;91.71;101039.69;5167332;28;20308;-73
2023/05/14 04:39:11;;;;;;;3.20;1.90;;;;;;;13.52;87.19;101031.22;5174065;28;20069;-73
2023/05/14 04:41:42;;;;;;;2.20;1.65;;;;;;;14.93;85.03;101016.25;5168194;28;20103;-74
2023/05/14 04:44:12;;;;;;;4.70;1.67;;;;;;;15.02;79.74;101014.97;5171650;28;20025;-74
2023/05/14 04:46:42;;;;;;;2.45;1.67;;;;;;;15.65;80.05;101020.66;5171650;28;20510;-74
2023/05/14 04:49:13;;;;;;;2.85;1.70;;;;;;;15.10;80.60;101020.72;5170018;28;20029;-74
2023/05/14 04:51:43;;;;;;;3.50;2.05;;;;;;;14.31;81.28;101022.63;5162394;28;20056;-74
2023/05/14 04:54:13;;;;;;;2.80;1.63;;;;;;;15.29;77.84;101021.56;5172240;28;20403;-74
2023/05/14 04:56:44;;;;;;;2.65;1.73;;;;;;;15.43;76.43;101014.75;5171539;28;20289;-74
2023/05/14 04:59:15;;;;;;;2.25;1.70;;;;;;;16.07;77.03;101017.66;5173440;28;20120;-74
2023/05/14 05:01:45;;;;;;;3.78;2.03;;;;;;;16.83;72.25;101018.88;5172876;28;20054;-74
2023/05/14 05:04:16;;;;;;;3.05;1.90;;;;;;;17.36;71.95;101012.41;5173830;28;20073;-74
2023/05/14 05:06:47;;;;;;;3.07;1.80;;;;;;;17.74;73.50;101012.84;5172614;28;20100;-74
2023/05/14 05:09:17;;;;;;;3.30;1.93;;;;;;;18.79;66.62;101008.13;5172563;28;20287;-74
2023/05/14 05:11:48;;;;;;;2.30;1.67;;;;;;;17.18;71.30;101021.28;5172163;28;20755;-73
2023/05/14 05:14:18;;;;;;;3.15;2.00;;;;;;;15.73;78.40;101023.75;5174830;28;20033;-74
2023/05/14 05:16:50;;;;;;;3.10;1.80;;;;;;;15.32;78.24;101018.81;5170576;28;20041;-73
2023/05/14 05:19:20;;;;;;;3.42;2.10;;;;;;;14.19;85.11;101025.78;5169923;28;20022;-74
2023/05/14 05:21:50;;;;;;;3.47;2.08;;;;;;;13.78;89.53;101031.88;5172182;28;20511;-73
2023/05/14 05:24:21;;;;;;;2.90;2.00;;;;;;;14.44;84.61;101023.78;5174353;28;20018;-73
2023/05/14 05:26:52;;;;;;;3.38;2.05;;;;;;;13.83;83.66;101027.31;5171294;28;20401;-73
2023/05/14 05:29:23;;;;;;;3.45;2.05;;;;;;;12.88;93.78;101036.38;5170528;28;20025;-73
2023/05/14 05:31:53;;;;;;;3.83;2.30;;;;;;;12.86;93.40;101031.22;5172571;28;20034;-75
2023/05/14 05:34:24;;;;;;;3.22;2.33;;;;;;;12.99;94.35;101035.09;5171659;28;20119;-73
2023/05/14 05:36:54;;;;;;;4.55;2.58;;;;;;;13.23;92.38;101028.91;5168776;28;20030;-74
2023/05/14 05:39:24;;;;;;;5.00;2.45;;;;;;;12.77;94.29;101031.53;5167662;28;20543;-73
2023/05/14 05:41:54;;;;;;;5.82;2.90;;;;;;;13.01;94.31;101033.25;5168638;28;20220;-73
2023/05/14 05:44:25;;;;;;;4.22;2.70;;;;;;;13.23;93.25;101034.16;5170682;28;20052;-73
2023/05/14 05:46:56;;;;;;;4.10;2.80;;;;;;;12.89;94.45;101025.84;5171096;28;20045;-72
2023/05/14 05:49:26;;;;;;;3.83;2.53;;;;;;;12.93;97.78;101023.97;5166584;28;20034;-72
2023/05/14 05:51:57;;;;;;;4.40;2.80;;;;;;;13.15;96.94;101020.47;5165285;28;20496;-73
2023/05/14 05:54:27;;;;;;;3.53;2.60;;;;;;;13.10;96.94;101017.19;5161834;28;20037;-73
2023/05/14 05:56:58;;;;;;;4.07;2.90;;;;;;;13.32;97.22;101024.16;5171194;28;20084;-72
2023/05/14 05:59:28;;;;;;;4.07;2.97;;;;;;;13.45;96.50;101028.00;5180604;28;20380;-73
2023/05/14 06:02:01;;;;;;;5.53;2.97;;;;;;;13.41;95.59;101022.94;5188799;28;20058;-74
2023/05/14 06:04:32;;;;;;;5.22;3.10;;;;;;;13.46;97.46;101024.47;5172392;28;20041;-72
2023/05/14 06:07:02;;;;;;;5.82;2.88;;;;;;;13.44;96.58;101028.06;5173754;28;20017;-73
2023/05/14 06:09:32;;;;;;;4.38;3.00;;;;;;;13.59;95.73;101030.06;5172611;28;20021;-71
2023/05/14 06:12:03;;;;;;;4.25;2.75;;;;;;;13.70;97.53;101026.09;5172291;28;20029;-72
2023/05/14 06:14:33;;;;;;;5.38;3.45;;;;;;;13.78;94.58;101025.78;5171961;28;20112;-71
2023/05/14 06:17:04;;;;;;;6.80;2.90;;;;;;;13.89;91.48;101026.19;5172347;28;20030;-72
2023/05/14 06:19:34;;;;;;;4.88;3.17;;;;;;;14.08;90.40;101019.25;5170068;28;20025;-72
2023/05/14 06:22:04;;;;;;;4.43;2.67;;;;;;;14.48;87.38;101022.75;5173135;28;20057;-73
2023/05/14 06:24:34;;;;;;;4.30;2.80;;;;;;;14.44;87.09;101022.94;5172377;28;20056;-71
2023/05/14 06:27:05;;;;;;;8.20;3.20;;;;;;;14.31;86.30;101027.88;5173387;28;20536;-73
2023/05/14 06:29:36;;;;;;;3.70;2.60;;;;;;;14.36;87.72;101030.28;5169758;28;20085;-72
2023/05/14 06:32:06;;;;;;;4.47;3.05;;;;;;;14.31;88.16;101030.50;5166834;28;20030;-72
2023/05/14 06:34:37;;;;;;;3.70;2.70;;;;;;;14.68;87.46;101027.09;5160827;28;20022;-72
2023/05/14 06:37:08;;;;;;;5.30;3.10;;;;;;;14.94;88.32;101033.75;5160121;28;20033;-72
2023/05/14 06:39:39;;;;;;;4.80;2.97;;;;;;;15.25;87.77;101023.50;5165553;28;20041;-72
2023/05/14 06:42:09;;;;;;;3.67;2.70;;;;;;;14.98;87.79;101026.56;5181259;28;20034;-73
2023/05/14 06:44:40;;;;;;;4.35;2.80;;;;;;;15.29;88.19;101017.19;5169165;28;20084;-73
2023/05/14 06:47:10;;;;;;;4.38;3.00;;;;;;;15.34;86.14;101020.44;5170753;28;20056;-72
2023/05/14 06:49:40;;;;;;;5.55;3.10;;;;;;;15.16;87.21;101018.66;5187063;28;20034;-72
2023/05/14 06:52:11;;;;;;;4.78;2.92;;;;;;;14.74;88.65;101018.94;5174681;28;20025;-72
2023/05/14 06:54:41;;;;;;;5.40;3.30;;;;;;;15.11;88.03;101011.88;5189116;28;20081;-72
2023/05/14 06:57:11;;;;;;;5.68;3.22;;;;;;;15.11;86.47;101009.25;5169277;28;20026;-72
2023/05/14 06:59:41;;;;;;;5.63;3.20;;;;;;;14.77;90.89;101011.75;5163017;28;20042;-73
2023/05/14 07:02:12;;;;;;;5.35;3.08;;;;;;;15.15;86.71;101006.41;5176811;28;20439;-72
2023/05/14 07:04:42;;;;;;;5.15;3.35;;;;;;;15.21;85.20;101006.09;5191045;28;20076;-72
2023/05/14 07:07:14;;;;;;;7.88;4.07;;;;;;;15.55;85.57;101003.59;5174967;28;20021;-72
2023/05/14 07:09:44;;;;;;;5.80;3.38;;;;;;;15.65;86.01;101007.50;5176803;28;20502;-72
2023/05/14 07:12:14;;;;;;;5.63;3.67;;;;;;;15.79;86.03;100991.84;5166453;28;20049;-73
2023/05/14 07:14:45;;;;;;;5.75;2.95;;;;;;;16.65;85.89;101001.41;5162564;28;20026;-73
2023/05/14 07:17:15;;;;;;;7.32;3.33;;;;;;;17.16;82.07;100990.63;5184626;28;20041;-72
2023/05/14 07:19:46;;;;;;;4.93;3.00;;;;;;;17.63;78.37;100984.38;5174218;28;20050;-73
2023/05/14 07:22:16;;;;;;;3.88;2.70;;;;;;;18.69;76.78;100978.81;5169641;28;20117;-73
2023/05/14 07:24:46;;;;;;;5.03;2.73;;;;;;;19.43;72.47;100989.84;5170609;28;20030;-73
2023/05/14 07:27:17;;;;;;;5.03;2.60;;;;;;;19.18;74.77;100973.84;5163881;28;20288;-74
2023/05/14 07:29:48;;;;;;;5.05;2.70;;;;;;;18.50;76.27;100979.09;5162091;28;20026;-73
2023/05/14 07:32:19;;;;;;;4.53;2.35;;;;;;;19.84;70.43;100973.88;5166014;28;20026;-73
2023/05/14 07:34:49;;;;;;;6.45;3.72;;;;;;;20.34;70.27;100979.25;5167583;28;20030;-72
2023/05/14 07:37:21;;;;;;;3.27;2.37;;;;;;;20.03;70.98;100964.59;5165449;28;20492;-73
2023/05/14 07:39:52;;;;;;;3.78;2.40;;;;;;;20.34;69.17;100974.81;5166064;28;20269;-73
2023/05/14 07:42:22;;;;;;;2.92;2.10;;;;;;;20.47;69.93;100965.03;5169011;28;20034;-73
2023/05/14 07:44:53;;;;;;;4.50;2.38;;;;;;;20.64;67.32;100956.72;5166307;28;20588;-73
2023/05/14 07:47:23;;;;;;;4.75;2.20;;;;;;;19.68;70.18;100960.78;5182289;28;20112;-72
2023/05/14 07:49:55;;;;;;;4.60;2.63;;;;;;;19.88;68.84;100965.59;5166951;28;20042;-73
2023/05/14 07:52:25;;;;;;;4.30;2.28;;;;;;;19.05;69.11;100957.00;5164020;28;20025;-73
2023/05/14 07:54:55;;;;;;;3.88;2.45;;;;;;;19.63;69.75;100957.56;5163685;28;20030;-73
2023/05/14 07:57:26;;;;;;;4.43;2.57;;;;;;;20.18;68.87;100955.59;5168657;28;20026;-73
2023/05/14 07:59:56;;;;;;;3.67;2.00;;;;;;;20.21;68.69;100951.84;5165078;28;20277;-73
2023/05/14 08:02:27;;;;;;;3.72;2.22;;;;;;;20.60;66.43;100944.59;5170224;28;20029;-73
2023/05/14 08:04:58;;;;;;;3.30;2.13;;;;;;;20.80;66.32;100957.31;5175383;28;20033;-73
2023/05/14 08:07:28;;;;;;;3.40;2.13;;;;;;;22.02;65.06;100941.06;5172715;28;20021;-74
2023/05/14 08:09:59;;;;;;;4.07;2.10;;;;;;;20.85;66.62;100947.25;5168346;28;20037;-73
2023/05/14 08:12:29;;;;;;;3.42;2.15;;;;;;;21.49;61.72;100946.91;5173203;28;20039;-74
2023/05/14 08:15:00;;;;;;;4.25;2.00;;;;;;;20.57;63.24;100952.81;5170236;28;20040;-73
2023/05/14 08:17:31;;;;;;;4.45;2.28;;;;;;;20.60;65.65;100944.59;5163502;28;20041;-73
2023/05/14 08:20:01;;;;;;;3.03;2.07;;;;;;;20.58;65.51;100940.34;5164698;28;20474;-72
2023/05/14 08:22:32;;;;;;;4.07;2.30;;;;;;;19.29;70.08;100947.47;5168290;28;20285;-73
2023/05/14 08:25:02;;;;;;;3.22;2.35;;;;;;;19.27;70.86;100952.03;5159639;28;20665;-72
2023/05/14 08:27:33;;;;;;;5.53;2.25;;;;;;;19.59;71.03;100945.47;5160980;28;20046;-72
2023/05/14 08:30:05;;;;;;;3.03;2.10;;;;;;;19.46;71.40;100947.22;5162498;28;20458;-72
2023/05/14 08:32:37;;;;;;;3.55;2.33;;;;;;;19.15;72.56;100942.22;5182123;28;20192;-72
2023/05/14 08:35:08;;;;;;;3.70;2.38;;;;;;;19.40;70.31;100947.66;5174222;28;21363;-73
2023/05/14 08:37:38;;;;;;;4.55;2.30;;;;;;;19.45;71.82;100940.22;5165533;28;20113;-72
2023/05/14 08:40:10;;;;;;;3.50;2.17;;;;;;;19.16;73.71;100941.31;5169023;28;20124;-73
2023/05/14 08:42:41;;;;;;;4.53;2.33;;;;;;;19.14;74.21;100940.50;5167332;28;20703;-73
2023/05/14 08:45:20;;;;;;;4.03;2.40;;;;;;;19.45;72.26;100934.91;5156355;28;20027;-73
2023/05/14 08:47:51;;;;;;;2.83;1.90;;;;;;;19.62;70.40;100929.34;5163014;28;20080;-74
2023/05/14 08:50:22;;;;;;;3.30;1.85;;;;;;;19.74;66.86;100936.50;5175252;28;20310;-73
2023/05/14 08:52:53;;;;;;;4.25;2.42;;;;;;;19.93;65.74;100926.31;5174545;28;20069;-73
2023/05/14 08:55:24;;;;;;;2.83;1.70;;;;;;;20.19;66.00;100927.22;5167629;28;20042;-73
2023/05/14 08:57:55;;;;;;;3.83;1.90;;;;;;;19.93;66.67;100926.31;5152543;28;20034;-73
2023/05/14 09:00:25;;;;;;;6.47;1.90;;;;;;;20.45;65.07;100916.47;5165253;28;20093;-73
2023/05/14 09:02:57;;;;;;;2.67;1.90;;;;;;;20.41;63.95;100920.31;5159682;28;20464;-72
2023/05/14 09:05:28;;;;;;;4.97;1.92;;;;;;;20.60;64.31;100912.72;5160395;28;20053;-73
2023/05/14 09:07:58;;;;;;;3.35;1.90;;;;;;;21.26;62.06;100915.84;5161665;28;20034;-73
2023/05/14 09:10:29;;;;;;;3.60;1.80;;;;;;;20.72;63.06;100917.19;5161819;28;20507;-73
2023/05/14 09:13:00;;;;;;;4.72;2.20;;;;;;;20.08;65.96;100919.13;5160789;28;20045;-73
2023/05/14 09:15:33;;;;;;;4.18;2.08;;;;;;;20.40;64.92;100915.09;5159946;28;20052;-73
2023/05/14 09:18:07;;;;;;;3.05;2.10;;;;;;;20.62;65.64;100910.81;5162486;28;20038;-72
2023/05/14 09:20:38;;;;;;;3.50;1.70;;;;;;;20.82;62.82;100908.44;5160570;28;20046;-72
2023/05/14 09:23:08;;;;;;;6.70;1.83;;;;;;;21.03;62.01;100900.75;5176118;28;20034;-73
2023/05/14 09:25:39;;;;;;;5.15;1.80;;;;;;;21.60;61.24;100885.75;5162243;28;20040;-72
2023/05/14 09:28:09;;;;;;;3.83;1.60;;;;;;;21.57;60.78;100897.47;5173746;28;20141;-73
2023/05/14 09:30:40;;;;;;;2.88;1.73;;;;;;;21.90;59.34;100889.59;5172630;28;20428;-72
2023/05/14 09:33:10;;;;;;;3.17;1.75;;;;;;;22.42;57.38;100884.59;5169797;28;20077;-72
2023/05/14 09:35:42;;;;;;;2.90;1.75;;;;;;;23.85;54.85;100884.22;5168319;28;20070;-72
2023/05/14 09:38:12;;;;;;;1.95;1.40;;;;;;;24.37;55.49;100866.19;5173215;28;20500;-73
2023/05/14 09:40:45;;;;;;;2.67;1.60;;;;;;;24.36;54.88;100867.16;5190638;28;20041;-72
2023/05/14 09:43:16;;;;;;;3.03;1.60;;;;;;;24.27;54.40;100861.78;5175209;28;20029;-72
2023/05/14 09:45:46;;;;;;;2.45;1.50;;;;;;;23.76;52.91;100861.78;5170380;28;20630;-72
2023/05/14 09:48:17;;;;;;;2.60;1.67;;;;;;;21.94;58.76;100871.59;5169826;28;20029;-72
2023/05/14 09:50:54;;;;;;;2.75;1.90;;;;;;;21.74;58.13;100865.13;5169474;28;20507;-72
2023/05/14 09:53:26;;;;;;;4.43;2.08;;;;;;;23.01;57.37;100849.47;5168346;28;20040;-72
2023/05/14 09:55:56;;;;;;;2.72;1.70;;;;;;;23.33;58.66;100845.00;5168191;28;20050;-73
2023/05/14 09:58:28;;;;;;;3.38;1.90;;;;;;;22.74;57.07;100840.22;5173274;28;20033;-72
2023/05/14 10:01:00;;;;;;;2.85;1.70;;;;;;;22.57;58.24;100842.56;5168319;28;20037;-73
2023/05/14 10:03:31;;;;;;;4.75;1.92;;;;;;;23.01;59.37;100832.66;5169893;28;20030;-71
2023/05/14 10:06:05;;;;;;;2.78;1.90;;;;;;;23.56;55.70;100824.41;5170600;28;20526;-73
2023/05/14 10:08:40;;;;;;;3.80;2.03;;;;;;;23.44;55.84;100820.09;5163972;28;20408;-72
2023/05/14 10:11:23;;;;;;;3.95;2.10;;;;;;;23.49;57.22;100824.06;5165757;28;20645;-71
2023/05/14 10:14:03;;;;;;;4.38;2.03;;;;;;;22.94;58.06;100818.97;5171369;28;20104;-73
2023/05/14 10:16:37;;;;;;;4.78;1.92;;;;;;;22.38;56.13;100826.31;5174697;28;20030;-73
2023/05/14 10:19:10;;;;;;;3.58;1.90;;;;;;;22.50;56.95;100815.56;5165166;28;20881;-73
2023/05/14 10:21:44;;;;;;;4.28;2.17;;;;;;;22.06;57.40;100809.41;5172470;28;20065;-72
2023/05/14 10:24:15;;;;;;;3.03;1.80;;;;;;;21.40;58.59;100814.59;5174770;28;20037;-72
2023/05/14 10:26:46;;;;;;;8.10;1.90;;;;;;;21.05;56.98;100809.28;5146856;28;20277;-72
2023/05/14 10:29:17;;;;;;;7.40;2.47;;;;;;;20.94;58.98;100811.03;5169631;28;20026;-72
2023/05/14 10:31:54;;;;;;;3.25;2.00;;;;;;;21.11;57.01;100802.66;5173535;28;20048;-71
2023/05/14 10:34:36;;;;;;;4.45;2.13;;;;;;;21.55;56.40;100800.97;5178580;28;20028;-71
2023/05/14 10:37:14;;;;;;;4.40;1.83;;;;;;;20.82;57.32;100806.59;5175739;28;20017;-73
2023/05/14 10:39:46;;;;;;;3.58;1.90;;;;;;;20.90;57.37;100804.25;5172543;28;20030;-72
2023/05/14 10:42:31;;;;;;;2.88;1.70;;;;;;;21.26;55.29;100798.84;5188771;28;20025;-73
2023/05/14 10:45:07;;;;;;;4.25;2.03;;;;;;;21.32;55.71;100785.06;5182798;28;20097;-73
2023/05/14 10:47:46;;;;;;;;;;;;;;;21.28;54.59;100787.13;5175666;28;20032;-72
2023/05/14 10:50:22;;;;;;;2.75;1.83;;;;;;;21.45;54.79;100776.06;5168488;28;19917;-73
2023/05/14 10:52:54;;;;;;;4.20;2.20;;;;;;;22.13;54.46;100773.31;5171484;28;20026;-73
2023/05/14 10:55:24;;;;;;;7.53;2.60;;;;;;;22.22;54.88;100776.09;5178316;28;20032;-72
2023/05/14 10:57:57;;;;;;;3.08;1.80;;;;;;;22.07;53.30;100769.34;5177215;28;20513;-73
2023/05/14 11:00:28;;;;;;;3.72;1.63;;;;;;;22.66;53.05;100767.19;5191138;28;20943;-72
2023/05/14 11:02:59;;;;;;;3.67;1.83;;;;;;;21.58;51.96;100775.94;5166205;28;20124;-74
2023/05/14 11:05:30;;;;;;;5.55;1.67;;;;;;;21.24;52.96;100777.69;5176214;28;20072;-72
2023/05/14 11:08:04;;;;;;;5.65;1.80;;;;;;;21.14;54.24;100770.53;5177092;28;20630;-72
2023/05/14 11:10:37;;;;;;;4.55;1.90;;;;;;;21.62;55.82;100767.66;5187363;28;20092;-72
2023/05/14 11:13:09;;;;;;;6.28;1.90;;;;;;;21.35;53.48;100766.22;5180024;28;20055;-70
2023/05/14 11:15:45;;;;;;;21.23;9.00;;;;;;;21.59;55.63;100757.19;5178513;28;20503;-71
2023/05/14 11:18:30;;;;;;;12.55;5.90;;;;;;;22.18;55.50;100750.69;5177339;28;20033;-71
2023/05/14 11:21:01;;;;;;;6.75;3.53;;;;;;;22.07;55.07;100763.19;5176619;28;20030;-72
2023/05/14 11:23:31;;;;;;;14.02;7.75;;;;;;;21.81;52.94;100753.72;5179254;28;20116;-72
2023/05/14 11:26:02;;;;;;;13.35;5.35;;;;;;;21.81;53.79;100751.94;5180025;28;20124;-72
2023/05/14 11:28:33;;;;;;;30.05;17.13;;;;;;;22.44;55.16;100748.63;5176292;28;20807;-72
2023/05/14 11:31:04;;;;;;;15.60;9.70;;;;;;;22.55;53.62;100732.56;5186555;28;20634;-72
2023/05/14 11:33:34;;;;;;;57.33;30.83;;;;;;;22.87;55.94;100728.94;5180675;28;20484;-72
2023/05/14 11:36:05;;;;;;;56.05;28.52;;;;;;;23.13;57.19;100724.94;5179403;28;20036;-73
2023/05/14 11:38:49;;;;;;;9.02;5.55;;;;;;;22.24;53.14;100733.38;5175541;28;20038;-72
2023/05/14 11:41:21;;;;;;;30.25;16.95;;;;;;;22.44;53.32;100730.78;5174820;28;20026;-73
2023/05/14 11:43:52;;;;;;;10.90;5.70;;;;;;;22.53;52.60;100726.53;5179426;28;20461;-72